Time;durP1;ratioP1;P1;durP2;ratioP2;P2;SDS_P1;SDS_P2;PMS_P1;PMS_P2;Temp;Humidity;BMP_temperature;BMP_pressure;BME280_temperature;BME280_humidity;BME280_pressure;Samples;Min_cycle;Max_cycle;Signal;HPM_P1;HPM_P2
2023/04/21 00:00:30;;;;;;;36.45;32.53;;;8.00;99.90;;;;;;5099253;28;20415;-68
2023/04/21 00:02:57;;;;;;;37.45;33.50;;;8.00;99.90;;;;;;5095728;28;20426;-69
2023/04/21 00:05:24;;;;;;;38.65;33.92;;;7.90;99.90;;;;;;5086127;28;20421;-68
2023/04/21 00:07:51;;;;;;;36.97;33.17;;;8.00;99.90;;;;;;5089909;28;20531;-68
2023/04/21 00:10:18;;;;;;;37.03;33.13;;;8.00;99.90;;;;;;5106103;28;20412;-68
2023/04/21 00:12:46;;;;;;;37.20;33.20;;;8.00;99.90;;;;;;5094017;28;20544;-69
2023/04/21 00:15:12;;;;;;;37.45;33.45;;;8.00;99.90;;;;;;5097831;28;20425;-68
2023/04/21 00:17:39;;;;;;;38.13;33.67;;;7.90;99.90;;;;;;5105521;28;20423;-68
2023/04/21 00:20:09;;;;;;;36.38;32.47;;;7.90;99.90;;;;;;5104226;28;20482;-69
2023/04/21 00:22:35;;;;;;;34.70;31.10;;;7.90;99.90;;;;;;5086841;28;20528;-68
2023/04/21 00:25:02;;;;;;;36.10;32.37;;;7.90;99.90;;;;;;5093237;28;20427;-68
2023/04/21 00:27:29;;;;;;;36.92;32.92;;;7.90;99.90;;;;;;5095849;28;20408;-68
2023/04/21 00:29:57;;;;;;;34.67;31.08;;;7.90;99.90;;;;;;5096397;28;20429;-68
2023/04/21 00:32:24;;;;;;;34.63;31.13;;;7.90;99.90;;;;;;5099473;28;20421;-68
2023/04/21 00:34:51;;;;;;;35.50;31.90;;;8.00;99.90;;;;;;5096285;28;20434;-68
2023/04/21 00:37:17;;;;;;;36.72;32.83;;;8.00;99.90;;;;;;5104682;28;20428;-68
2023/04/21 00:39:44;;;;;;;35.95;32.20;;;8.00;99.90;;;;;;5105938;28;20424;-68
2023/04/21 00:42:11;;;;;;;36.33;32.63;;;7.90;99.90;;;;;;5103935;28;20436;-69
2023/04/21 00:44:37;;;;;;;35.85;32.25;;;7.90;99.90;;;;;;5095883;28;20433;-68
2023/04/21 00:47:06;;;;;;;36.55;32.78;;;7.90;99.90;;;;;;5095631;28;20494;-68
2023/04/21 00:49:32;;;;;;;36.58;32.75;;;7.90;99.90;;;;;;5091047;28;20419;-68
2023/04/21 00:51:59;;;;;;;35.92;32.22;;;8.00;99.90;;;;;;5092249;28;20452;-68
2023/04/21 00:54:27;;;;;;;36.20;32.50;;;7.90;99.90;;;;;;5092170;28;20440;-68
2023/04/21 00:56:57;;;;;;;35.72;32.22;;;7.90;99.90;;;;;;5090512;28;20416;-68
2023/04/21 00:59:23;;;;;;;36.03;32.33;;;8.00;99.90;;;;;;5094711;28;20486;-68
2023/04/21 01:01:51;;;;;;;35.25;31.75;;;8.00;99.90;;;;;;5102462;28;20905;-68
2023/04/21 01:04:19;;;;;;;34.42;31.10;;;8.00;99.90;;;;;;5094940;28;20437;-68
2023/04/21 01:06:46;;;;;;;34.72;31.25;;;7.90;99.90;;;;;;5098093;28;20444;-68
2023/04/21 01:09:13;;;;;;;35.10;31.60;;;7.90;99.90;;;;;;5086232;28;20793;-69
2023/04/21 01:11:40;;;;;;;35.63;32.03;;;7.90;99.90;;;;;;5097283;28;20422;-68
2023/04/21 01:14:07;;;;;;;36.00;32.30;;;8.00;99.90;;;;;;5096096;28;20889;-68
2023/04/21 01:16:33;;;;;;;34.78;31.48;;;8.00;99.90;;;;;;5098887;28;20452;-68
2023/04/21 01:19:01;;;;;;;36.10;32.30;;;8.00;99.90;;;;;;5098508;28;20852;-68
2023/04/21 01:21:30;;;;;;;34.20;30.70;;;7.90;99.90;;;;;;5094106;28;20523;-68
2023/04/21 01:23:58;;;;;;;34.80;31.30;;;7.90;99.90;;;;;;5102761;28;20410;-68
2023/04/21 01:26:25;;;;;;;33.60;30.20;;;7.90;99.90;;;;;;5088329;28;20432;-68
2023/04/21 01:28:52;;;;;;;35.50;31.90;;;7.90;99.90;;;;;;5094667;28;20913;-68
2023/04/21 01:31:19;;;;;;;37.67;33.67;;;7.80;99.90;;;;;;5094059;28;20433;-68
2023/04/21 01:33:46;;;;;;;35.40;31.80;;;7.90;99.90;;;;;;5087758;28;20426;-69
2023/04/21 01:36:13;;;;;;;35.45;31.85;;;7.90;99.90;;;;;;5088156;28;20417;-68
2023/04/21 01:38:40;;;;;;;35.10;31.60;;;7.90;99.90;;;;;;5100623;28;20432;-68
2023/04/21 01:41:09;;;;;;;35.72;32.10;;;7.80;99.90;;;;;;5087921;28;20520;-68
2023/04/21 01:43:37;;;;;;;36.47;32.83;;;7.90;99.90;;;;;;5098276;28;20604;-68
2023/04/21 01:46:03;;;;;;;36.38;32.67;;;7.90;99.90;;;;;;5103065;28;20429;-68
2023/04/21 01:48:30;;;;;;;34.58;31.10;;;7.80;99.90;;;;;;5097710;27;20420;-68
2023/04/21 01:50:57;;;;;;;36.25;32.35;;;7.90;99.90;;;;;;5122609;27;20422;-68
2023/04/21 01:53:25;;;;;;;36.28;32.58;;;7.90;99.90;;;;;;5105525;28;20435;-68
2023/04/21 01:55:52;;;;;;;35.58;31.90;;;7.90;99.90;;;;;;5107496;28;20495;-68
2023/04/21 01:58:20;;;;;;;34.28;30.67;;;7.90;99.90;;;;;;5095694;28;20431;-69
2023/04/21 02:00:47;;;;;;;33.45;30.13;;;8.00;99.90;;;;;;5098228;28;20434;-68
2023/04/21 02:03:13;;;;;;;35.30;31.70;;;7.90;99.90;;;;;;5097430;28;20419;-68
2023/04/21 02:05:40;;;;;;;34.50;31.30;;;7.90;99.90;;;;;;5108045;28;20782;-68
2023/04/21 02:08:07;;;;;;;33.08;29.70;;;7.90;99.90;;;;;;5102059;28;20494;-68
2023/04/21 02:10:34;;;;;;;34.75;31.45;;;7.90;99.90;;;;;;5087444;28;20418;-68
2023/04/21 02:13:00;;;;;;;34.60;31.20;;;7.90;99.90;;;;;;5095879;28;20547;-68
2023/04/21 02:15:28;;;;;;;33.17;29.98;;;7.90;99.90;;;;;;5099782;28;20882;-68
2023/04/21 02:17:55;;;;;;;34.10;30.83;;;7.90;99.90;;;;;;5096042;28;20896;-68
2023/04/21 02:20:22;;;;;;;33.72;30.42;;;7.80;99.90;;;;;;5088353;28;20469;-68
2023/04/21 02:22:49;;;;;;;35.70;32.20;;;7.80;99.90;;;;;;5093402;28;20778;-66
2023/04/21 02:25:15;;;;;;;33.35;30.05;;;7.70;99.90;;;;;;5095856;28;20414;-67
2023/04/21 02:27:42;;;;;;;33.60;30.10;;;7.70;99.90;;;;;;5098650;28;20602;-67
2023/04/21 02:30:09;;;;;;;34.45;30.85;;;7.60;99.90;;;;;;5107855;28;20450;-67
2023/04/21 02:32:38;;;;;;;34.40;30.90;;;7.60;99.90;;;;;;5098969;28;20463;-67
2023/04/21 02:35:05;;;;;;;34.67;30.95;;;7.50;99.90;;;;;;5111267;28;20403;-66
2023/04/21 02:37:33;;;;;;;36.90;32.90;;;7.40;99.90;;;;;;5110627;28;20430;-67
2023/04/21 02:39:59;;;;;;;35.13;31.52;;;7.50;99.90;;;;;;5113491;28;20451;-67
2023/04/21 02:42:26;;;;;;;36.97;33.03;;;7.40;99.90;;;;;;5116874;28;20401;-67
2023/04/21 02:44:53;;;;;;;37.10;33.22;;;7.40;99.90;;;;;;5112219;28;20410;-67
2023/04/21 02:47:19;;;;;;;38.17;33.55;;;7.30;99.90;;;;;;5107655;28;20424;-66
2023/04/21 02:49:47;;;;;;;35.78;32.17;;;7.30;99.90;;;;;;5112243;28;20397;-66
2023/04/21 02:52:14;;;;;;;37.92;34.03;;;7.20;99.90;;;;;;5105668;28;20432;-67
2023/04/21 02:54:41;;;;;;;37.33;33.28;;;7.20;99.90;;;;;;5107880;28;20424;-67
2023/04/21 02:57:08;;;;;;;38.90;34.67;;;7.10;99.90;;;;;;5100281;28;20458;-67
2023/04/21 02:59:35;;;;;;;39.42;35.13;;;7.10;99.90;;;;;;5096668;28;20425;-67
2023/04/21 03:02:02;;;;;;;38.80;34.60;;;7.10;99.90;;;;;;5088070;28;20497;-67
2023/04/21 03:04:28;;;;;;;38.70;34.50;;;7.10;99.90;;;;;;5089209;28;20957;-67
2023/04/21 03:06:56;;;;;;;38.25;34.25;;;7.10;99.90;;;;;;5106352;28;20453;-67
2023/04/21 03:09:23;;;;;;;38.20;34.20;;;7.00;99.90;;;;;;5101786;28;20487;-72
2023/04/21 03:11:50;;;;;;;40.85;36.05;;;7.00;99.90;;;;;;5095475;28;20462;-66
2023/04/21 03:14:17;;;;;;;40.03;35.72;;;7.00;99.90;;;;;;5101912;28;20424;-67
2023/04/21 03:16:43;;;;;;;40.03;36.03;;;6.90;99.90;;;;;;5087401;28;20410;-67
2023/04/21 03:19:10;;;;;;;42.83;37.33;;;6.90;99.90;;;;;;5086722;28;20497;-66
2023/04/21 03:21:38;;;;;;;43.70;37.37;;;6.90;99.90;;;;;;5088696;28;20450;-67
2023/04/21 03:24:07;;;;;;;45.05;39.40;;;6.90;99.90;;;;;;5093971;28;20420;-67
2023/04/21 03:26:34;;;;;;;43.20;37.93;;;6.90;99.90;;;;;;5095720;28;20426;-66
2023/04/21 03:29:01;;;;;;;46.90;39.08;;;6.90;99.90;;;;;;5087532;28;20418;-67
2023/04/21 03:31:27;;;;;;;41.08;36.38;;;6.90;99.90;;;;;;5088670;28;20498;-67
2023/04/21 03:33:54;;;;;;;45.55;39.58;;;6.90;99.90;;;;;;5091988;28;20445;-67
2023/04/21 03:36:21;;;;;;;46.83;39.08;;;6.90;99.90;;;;;;5094525;28;20419;-67
2023/04/21 03:38:47;;;;;;;45.35;38.90;;;6.90;99.90;;;;;;5107528;28;20439;-68
2023/04/21 03:41:16;;;;;;;47.80;39.63;;;6.90;99.90;;;;;;5102689;28;20423;-68
2023/04/21 03:43:42;;;;;;;43.65;38.90;;;6.90;99.90;;;;;;5105655;28;20402;-66
2023/04/21 03:46:17;;;;;;;46.65;39.55;;;6.90;99.90;;;;;;5118822;28;20434;-67
2023/04/21 03:48:44;;;;;;;46.38;38.30;;;6.90;99.90;;;;;;5114072;28;20616;-66
2023/04/21 03:51:10;;;;;;;48.27;40.17;;;6.90;99.90;;;;;;5114613;28;20435;-67
2023/04/21 03:53:37;;;;;;;49.75;40.83;;;6.80;99.90;;;;;;5092970;28;20432;-66
2023/04/21 03:56:04;;;;;;;46.05;40.35;;;6.80;99.90;;;;;;5105702;28;20439;-68
2023/04/21 03:58:33;;;;;;;46.35;40.83;;;6.80;99.90;;;;;;5095502;28;20436;-67
2023/04/21 04:01:00;;;;;;;45.15;39.58;;;6.80;99.90;;;;;;5091477;28;20735;-68
2023/04/21 04:03:27;;;;;;;52.38;42.67;;;6.70;99.90;;;;;;5092697;28;20425;-72
2023/04/21 04:05:54;;;;;;;52.20;42.83;;;6.70;99.90;;;;;;5088984;28;20414;-67
2023/04/21 04:08:21;;;;;;;60.15;43.47;;;6.70;99.90;;;;;;5106141;28;20465;-68
2023/04/21 04:10:48;;;;;;;53.88;43.03;;;6.70;99.90;;;;;;5096649;28;20457;-67
2023/04/21 04:13:15;;;;;;;54.38;43.17;;;6.70;99.90;;;;;;5102806;28;20450;-68
2023/04/21 04:15:43;;;;;;;54.35;42.70;;;6.70;99.90;;;;;;5106649;28;20420;-68
2023/04/21 04:18:10;;;;;;;48.30;42.08;;;6.80;99.90;;;;;;5097392;28;20424;-68
2023/04/21 04:20:36;;;;;;;48.53;41.30;;;6.70;99.90;;;;;;5095291;28;20435;-67
2023/04/21 04:23:03;;;;;;;50.58;43.13;;;6.70;99.90;;;;;;5097189;28;20447;-67
2023/04/21 04:25:32;;;;;;;55.03;42.92;;;6.70;99.90;;;;;;5097493;28;20446;-69
2023/04/21 04:27:58;;;;;;;50.90;41.08;;;6.80;99.90;;;;;;5096570;28;20528;-68
2023/04/21 04:30:26;;;;;;;50.65;41.75;;;6.70;99.90;;;;;;5092417;28;20425;-68
2023/04/21 04:32:56;;;;;;;52.10;41.92;;;6.70;99.90;;;;;;5101155;28;20435;-68
2023/04/21 04:35:23;;;;;;;52.25;41.63;;;6.70;99.90;;;;;;5096925;28;20563;-67
2023/04/21 04:37:50;;;;;;;53.08;43.05;;;6.70;99.90;;;;;;5101064;28;20447;-68
2023/04/21 04:40:16;;;;;;;52.90;43.03;;;6.70;99.90;;;;;;5104143;28;20432;-69
2023/04/21 04:42:44;;;;;;;54.13;42.67;;;6.70;99.90;;;;;;5105265;28;20431;-70
2023/04/21 04:45:12;;;;;;;48.50;39.83;;;6.70;99.90;;;;;;5102765;28;20454;-69
2023/04/21 04:47:39;;;;;;;47.25;39.63;;;6.70;99.90;;;;;;5105966;28;20420;-71
2023/04/21 04:50:08;;;;;;;46.42;38.45;;;6.80;99.90;;;;;;5106200;28;20527;-68
2023/04/21 04:52:35;;;;;;;45.42;39.38;;;6.80;99.90;;;;;;5110806;28;20516;-66
2023/04/21 04:55:02;;;;;;;47.72;39.60;;;6.70;99.90;;;;;;5096445;28;20918;-69
2023/04/21 04:57:30;;;;;;;45.83;39.33;;;6.80;99.90;;;;;;5102182;28;20515;-68
2023/04/21 04:59:57;;;;;;;50.70;39.67;;;6.80;99.90;;;;;;5106094;28;20760;-67
2023/04/21 05:02:24;;;;;;;47.13;39.65;;;6.80;99.90;;;;;;5105279;28;20408;-66
2023/04/21 05:04:51;;;;;;;45.67;40.38;;;6.90;99.90;;;;;;5105843;28;20533;-68
2023/04/21 05:07:19;;;;;;;42.97;37.80;;;6.90;99.90;;;;;;5118537;28;20797;-68
2023/04/21 05:09:46;;;;;;;45.60;38.97;;;6.90;99.90;;;;;;5111958;28;20496;-70
2023/04/21 05:12:13;;;;;;;47.50;39.10;;;6.90;99.90;;;;;;5104542;28;20432;-70
2023/04/21 05:14:39;;;;;;;46.65;38.80;;;7.00;99.90;;;;;;5108925;28;20431;-72
2023/04/21 05:17:06;;;;;;;42.33;37.83;;;7.00;99.90;;;;;;5109171;28;20412;-71
2023/04/21 05:19:35;;;;;;;43.50;38.20;;;6.90;99.90;;;;;;5107360;28;20504;-69
2023/04/21 05:22:02;;;;;;;41.40;36.90;;;6.90;99.90;;;;;;5098988;28;20416;-70
2023/04/21 05:24:30;;;;;;;43.47;38.08;;;6.90;99.90;;;;;;5107910;28;20432;-70
2023/04/21 05:26:56;;;;;;;41.67;37.10;;;6.90;99.90;;;;;;5100843;28;20777;-70
2023/04/21 05:29:23;;;;;;;43.55;38.65;;;6.80;99.90;;;;;;5102143;28;20433;-70
2023/04/21 05:31:50;;;;;;;42.13;37.63;;;6.80;99.90;;;;;;5099442;28;20529;-70
2023/04/21 05:34:17;;;;;;;45.50;39.42;;;6.80;99.90;;;;;;5104364;28;20774;-70
2023/04/21 05:36:43;;;;;;;42.30;37.70;;;6.80;99.90;;;;;;5103176;28;20435;-71
2023/04/21 05:39:10;;;;;;;42.10;37.33;;;6.80;99.90;;;;;;5100197;28;20513;-69
2023/04/21 05:41:38;;;;;;;43.67;37.80;;;6.80;99.90;;;;;;5102018;28;20436;-69
2023/04/21 05:44:05;;;;;;;42.45;37.58;;;6.80;99.90;;;;;;5103842;28;20424;-70
2023/04/21 05:46:33;;;;;;;41.22;36.72;;;6.80;99.90;;;;;;5109206;28;20432;-70
2023/04/21 05:49:01;;;;;;;43.38;38.10;;;6.80;99.90;;;;;;5103988;28;20491;-70
2023/04/21 05:51:27;;;;;;;43.70;37.85;;;6.80;99.90;;;;;;5112217;28;20467;-70
2023/04/21 05:53:54;;;;;;;41.95;37.38;;;6.80;99.90;;;;;;5104749;28;20424;-69
2023/04/21 05:56:21;;;;;;;42.45;37.80;;;6.80;99.90;;;;;;5106961;28;20449;-70
2023/04/21 05:58:49;;;;;;;44.28;37.40;;;6.80;99.90;;;;;;5113369;28;20522;-69
2023/04/21 06:01:16;;;;;;;44.25;38.08;;;6.80;99.90;;;;;;5096128;28;20488;-69
2023/04/21 06:03:43;;;;;;;43.83;39.00;;;6.90;99.90;;;;;;5106632;28;20428;-70
2023/04/21 06:06:10;;;;;;;42.17;36.60;;;6.90;99.90;;;;;;5112325;27;20427;-69
2023/04/21 06:08:37;;;;;;;38.50;34.40;;;7.00;99.90;;;;;;5106335;28;20457;-69
2023/04/21 06:11:03;;;;;;;38.35;34.45;;;7.10;99.90;;;;;;5103730;28;20427;-66
2023/04/21 06:13:30;;;;;;;35.40;31.90;;;7.20;99.90;;;;;;5104850;28;20428;-68
2023/04/21 06:15:58;;;;;;;37.28;33.60;;;7.20;99.90;;;;;;5100999;28;20428;-67
2023/04/21 06:18:27;;;;;;;34.42;31.02;;;7.30;99.90;;;;;;5104434;28;20936;-67
2023/04/21 06:20:54;;;;;;;32.22;29.02;;;7.30;99.90;;;;;;5104069;28;20428;-67
2023/04/21 06:23:22;;;;;;;34.72;31.33;;;7.20;99.90;;;;;;5108006;27;20516;-68
2023/04/21 06:26:00;;;;;;;32.63;29.50;;;7.30;99.90;;;;;;5100376;27;20432;-67
2023/04/21 06:28:26;;;;;;;31.38;28.38;;;7.30;99.90;;;;;;5100547;28;20859;-67
2023/04/21 06:30:53;;;;;;;32.55;29.45;;;7.40;99.90;;;;;;5102866;28;20424;-67
2023/04/21 06:33:21;;;;;;;30.80;27.90;;;7.40;99.90;;;;;;5096008;28;20425;-69
2023/04/21 06:35:48;;;;;;;31.25;28.35;;;7.50;99.90;;;;;;5099370;28;20412;-67
2023/04/21 06:38:15;;;;;;;30.13;27.27;;;7.60;99.90;;;;;;5106923;28;20428;-67
2023/04/21 06:40:42;;;;;;;31.50;28.60;;;7.70;99.90;;;;;;5105089;28;20706;-68
2023/04/21 06:43:08;;;;;;;29.00;26.30;;;7.80;99.90;;;;;;5105953;28;20416;-67
2023/04/21 06:45:35;;;;;;;29.27;26.58;;;7.80;99.90;;;;;;5107650;28;20416;-67
2023/04/21 06:48:02;;;;;;;26.60;24.10;;;7.80;99.90;;;;;;5103242;28;20424;-67
2023/04/21 06:50:30;;;;;;;28.17;25.58;;;7.90;99.90;;;;;;5098927;28;20476;-67
2023/04/21 06:52:57;;;;;;;26.85;24.35;;;7.90;99.90;;;;;;5112892;27;21198;-68
2023/04/21 06:55:23;;;;;;;28.70;26.00;;;8.00;99.90;;;;;;5103657;27;20420;-67
2023/04/21 06:57:50;;;;;;;27.50;24.90;;;8.10;99.90;;;;;;5099637;27;20501;-67
2023/04/21 07:00:17;;;;;;;28.35;25.75;;;8.10;99.90;;;;;;5091008;28;20438;-67
2023/04/21 07:02:44;;;;;;;26.48;24.08;;;8.10;99.90;;;;;;5098850;28;20418;-67
2023/04/21 07:05:11;;;;;;;26.20;23.80;;;8.10;99.90;;;;;;5103878;28;20514;-67
2023/04/21 07:07:39;;;;;;;27.13;24.63;;;8.00;99.90;;;;;;5102015;28;20436;-67
2023/04/21 07:10:07;;;;;;;25.77;23.50;;;8.00;99.90;;;;;;5102633;28;20436;-67
2023/04/21 07:12:33;;;;;;;24.35;22.15;;;8.00;99.90;;;;;;5098769;28;20438;-67
2023/04/21 07:15:00;;;;;;;24.83;22.48;;;8.00;99.90;;;;;;5089703;28;20440;-67
2023/04/21 07:17:27;;;;;;;25.73;23.33;;;8.10;99.90;;;;;;5101390;28;20436;-67
2023/04/21 07:19:53;;;;;;;26.27;23.88;;;8.10;99.90;;;;;;5119131;27;20431;-67
2023/04/21 07:22:20;;;;;;;27.60;25.05;;;8.20;99.90;;;;;;5114490;27;20958;-67
2023/04/21 07:24:48;;;;;;;26.63;24.13;;;8.40;99.90;;;;;;5108459;27;20891;-67
2023/04/21 07:27:15;;;;;;;25.70;23.27;;;8.60;99.90;;;;;;5097645;27;20447;-67
2023/04/21 07:29:41;;;;;;;23.75;21.65;;;8.90;99.90;;;;;;5095109;28;20913;-67
2023/04/21 07:32:08;;;;;;;24.40;22.20;;;8.90;99.90;;;;;;5095369;28;21132;-69
2023/04/21 07:34:35;;;;;;;23.52;21.42;;;9.00;99.90;;;;;;5101705;28;21059;-68
2023/04/21 07:37:02;;;;;;;23.42;21.33;;;9.10;99.90;;;;;;5094126;28;20426;-64
2023/04/21 07:39:28;;;;;;;23.08;20.88;;;9.20;99.90;;;;;;5101476;28;20503;-61
2023/04/21 07:41:56;;;;;;;23.50;21.40;;;9.40;99.90;;;;;;5095364;28;20425;-67
2023/04/21 07:44:23;;;;;;;24.00;21.90;;;9.60;99.90;;;;;;5093747;28;20413;-66
2023/04/21 07:46:50;;;;;;;22.30;20.30;;;9.70;99.90;;;;;;5092941;28;20445;-66
2023/04/21 07:49:17;;;;;;;21.67;19.77;;;9.90;99.90;;;;;;5097855;28;20432;-68
2023/04/21 07:51:43;;;;;;;22.20;20.40;;;9.90;99.90;;;;;;5108691;27;20542;-67
2023/04/21 07:54:10;;;;;;;22.53;20.63;;;10.10;99.90;;;;;;5098384;27;20567;-68
2023/04/21 07:56:37;;;;;;;22.23;20.33;;;10.30;99.90;;;;;;5093278;28;20429;-68
2023/04/21 07:59:05;;;;;;;22.40;20.30;;;10.40;99.90;;;;;;5084507;28;20508;-67
2023/04/21 08:01:32;;;;;;;22.75;20.85;;;10.50;99.90;;;;;;5083403;28;20425;-65
2023/04/21 08:03:58;;;;;;;21.97;19.97;;;10.50;99.90;;;;;;5094649;28;20928;-66
2023/04/21 08:06:26;;;;;;;21.58;19.67;;;10.50;99.90;;;;;;5085646;28;20419;-66
2023/04/21 08:08:53;;;;;;;21.10;19.30;;;10.50;99.90;;;;;;5093450;28;20900;-69
2023/04/21 08:11:20;;;;;;;21.52;19.63;;;10.50;99.90;;;;;;5085526;28;20410;-66
2023/04/21 08:13:46;;;;;;;22.05;20.05;;;10.60;99.90;;;;;;5083766;28;20496;-68
2023/04/21 08:16:15;;;;;;;21.58;19.77;;;10.60;99.90;;;;;;5097438;28;20930;-66
2023/04/21 08:18:41;;;;;;;21.13;19.33;;;10.60;99.90;;;;;;5094795;28;20471;-67
2023/04/21 08:21:08;;;;;;;21.13;19.33;;;10.50;99.90;;;;;;5090773;28;20439;-66
2023/04/21 08:23:35;;;;;;;22.40;20.50;;;10.50;99.90;;;;;;5096611;28;21006;-68
2023/04/21 08:26:02;;;;;;;22.25;20.35;;;10.50;99.90;;;;;;5098483;28;20412;-68
2023/04/21 08:28:29;;;;;;;21.85;19.95;;;10.60;99.90;;;;;;5097837;28;20428;-68
2023/04/21 08:30:56;;;;;;;21.75;19.95;;;10.60;99.90;;;;;;5100086;28;20436;-66
2023/04/21 08:33:24;;;;;;;21.05;19.25;;;10.70;99.90;;;;;;5100944;28;20434;-67
2023/04/21 08:35:50;;;;;;;21.90;20.00;;;10.90;99.90;;;;;;5092691;28;20424;-68
2023/04/21 08:38:17;;;;;;;21.42;19.63;;;11.20;99.90;;;;;;5095919;28;20457;-68
2023/04/21 08:40:44;;;;;;;21.40;19.55;;;11.40;99.40;;;;;;5090483;28;20437;-68
2023/04/21 08:43:12;;;;;;;21.27;19.48;;;11.60;98.40;;;;;;5087252;28;20451;-68
2023/04/21 08:45:40;;;;;;;20.98;19.08;;;11.70;97.80;;;;;;5084683;28;20416;-67
2023/04/21 08:48:08;;;;;;;21.97;20.17;;;11.60;97.40;;;;;;5097469;28;20431;-68
2023/04/21 08:50:38;;;;;;;21.85;20.05;;;11.60;98.00;;;;;;5087377;28;20434;-68
2023/04/21 08:53:05;;;;;;;20.58;18.88;;;11.70;97.70;;;;;;5088076;28;20436;-66
2023/04/21 08:55:33;;;;;;;21.45;19.55;;;11.70;97.80;;;;;;5102785;28;20428;-66
2023/04/21 08:58:00;;;;;;;20.77;19.02;;;11.90;98.10;;;;;;5086881;28;20608;-66
2023/04/21 09:00:26;;;;;;;20.23;18.63;;;12.20;97.60;;;;;;5088709;28;20489;-66
2023/04/21 09:02:55;;;;;;;20.27;18.58;;;12.60;96.80;;;;;;5092241;28;20416;-66
2023/04/21 09:05:23;;;;;;;19.55;17.95;;;12.60;95.60;;;;;;5093252;28;20417;-65
2023/04/21 09:07:52;;;;;;;18.40;16.95;;;12.60;94.80;;;;;;5088137;28;20491;-66
2023/04/21 09:10:23;;;;;;;19.52;17.92;;;12.70;95.30;;;;;;5091321;28;20410;-66
2023/04/21 09:12:51;;;;;;;19.05;17.48;;;13.00;94.70;;;;;;5083352;28;20874;-66
2023/04/21 09:15:20;;;;;;;17.20;15.90;;;13.10;94.20;;;;;;5097639;28;20510;-66
2023/04/21 09:17:46;;;;;;;17.90;16.40;;;13.30;93.40;;;;;;5095558;28;20428;-66
2023/04/21 09:20:15;;;;;;;18.40;16.90;;;13.50;92.20;;;;;;5090628;28;20519;-66
2023/04/21 09:22:42;;;;;;;18.10;16.50;;;13.80;92.70;;;;;;5082128;28;20533;-66
2023/04/21 09:25:15;;;;;;;17.77;16.38;;;14.00;91.40;;;;;;5102232;28;20411;-66
2023/04/21 09:27:42;;;;;;;17.23;15.87;;;14.30;90.80;;;;;;5090136;28;20427;-65
2023/04/21 09:30:10;;;;;;;17.58;16.27;;;14.70;89.50;;;;;;5102452;28;20427;-66
2023/04/21 09:32:37;;;;;;;17.70;16.20;;;14.90;86.80;;;;;;5100996;28;20424;-66
2023/04/21 09:35:06;;;;;;;17.20;15.80;;;14.90;88.00;;;;;;5097184;28;20793;-66
2023/04/21 09:37:33;;;;;;;16.75;15.45;;;15.10;85.90;;;;;;5097387;28;20941;-66
2023/04/21 09:40:00;;;;;;;20.60;18.90;;;15.30;85.60;;;;;;5093394;28;20488;-65
2023/04/21 09:42:30;;;;;;;18.80;17.20;;;15.50;83.90;;;;;;5103277;28;20508;-66
2023/04/21 09:44:57;;;;;;;17.55;16.15;;;15.60;81.20;;;;;;5090429;28;20424;-66
2023/04/21 09:47:26;;;;;;;16.40;15.00;;;15.60;81.40;;;;;;5101073;28;20479;-65
2023/04/21 09:49:53;;;;;;;16.90;15.50;;;15.50;81.30;;;;;;5090784;28;20760;-66
2023/04/21 09:52:20;;;;;;;16.98;15.57;;;15.70;81.60;;;;;;5096891;28;20882;-66
2023/04/21 09:54:50;;;;;;;16.45;15.15;;;15.90;83.00;;;;;;5099881;28;20670;-65
2023/04/21 09:57:22;;;;;;;16.23;14.93;;;16.20;81.10;;;;;;5100971;28;20776;-67
2023/04/21 09:59:55;;;;;;;17.27;15.88;;;16.20;76.60;;;;;;5093839;28;20504;-68
2023/04/21 10:02:26;;;;;;;16.90;15.30;;;15.90;76.40;;;;;;5102973;28;20420;-66
2023/04/21 10:04:53;;;;;;;16.30;15.00;;;15.70;77.90;;;;;;5103761;28;20469;-67
2023/04/21 10:07:20;;;;;;;15.75;14.45;;;15.60;78.20;;;;;;5103539;28;20415;-67
2023/04/21 10:09:50;;;;;;;16.15;14.82;;;15.60;77.70;;;;;;5102719;28;21031;-67
2023/04/21 10:12:18;;;;;;;15.85;14.48;;;15.50;78.40;;;;;;5085714;28;21115;-68
2023/04/21 10:14:45;;;;;;;16.23;14.83;;;15.50;77.60;;;;;;5092367;28;20431;-68
2023/04/21 10:17:15;;;;;;;16.17;14.87;;;15.60;79.10;;;;;;5102242;28;20471;-67
2023/04/21 10:19:49;;;;;;;15.15;13.95;;;15.80;77.80;;;;;;5106485;28;20890;-68
2023/04/21 10:22:28;;;;;;;15.18;13.88;;;16.20;75.30;;;;;;5091756;28;20823;-67
2023/04/21 10:24:55;;;;;;;14.27;13.07;;;16.50;72.70;;;;;;5103926;28;20408;-65
2023/04/21 10:27:32;;;;;;;15.10;13.90;;;16.60;72.00;;;;;;5095194;28;20505;-65
2023/04/21 10:29:59;;;;;;;15.07;13.88;;;16.70;71.90;;;;;;5091891;28;20525;-67
2023/04/21 10:32:40;;;;;;;14.40;13.20;;;16.70;71.60;;;;;;5094995;28;20426;-61
2023/04/21 10:35:09;;;;;;;14.65;13.35;;;16.80;71.80;;;;;;5098888;28;20428;-63
2023/04/21 10:37:36;;;;;;;13.25;12.15;;;17.10;71.60;;;;;;5091749;28;20839;-64
2023/04/21 10:40:08;;;;;;;11.73;10.73;;;17.60;70.40;;;;;;5095809;27;20812;-63
2023/04/21 10:42:36;;;;;;;12.57;11.57;;;18.00;64.40;;;;;;5088520;27;20949;-63
2023/04/21 10:45:10;;;;;;;11.75;10.75;;;18.00;60.50;;;;;;5099051;28;20452;-63
2023/04/21 10:47:44;;;;;;;13.97;12.80;;;18.00;63.60;;;;;;5113032;27;20600;-62
2023/04/21 10:50:14;;;;;;;20.35;15.70;;;17.90;61.70;;;;;;5093793;27;21061;-63
2023/04/21 10:52:45;;;;;;;14.02;12.57;;;17.90;60.90;;;;;;5095548;28;20463;-64
2023/04/21 10:55:14;;;;;;;16.05;14.35;;;17.70;60.50;;;;;;5104289;28;20423;-63
2023/04/21 10:57:44;;;;;;;11.45;10.45;;;17.60;62.10;;;;;;5094832;28;21151;-63
2023/04/21 11:00:14;;;;;;;10.60;9.73;;;17.80;60.90;;;;;;5095628;28;20790;-63
2023/04/21 11:02:42;;;;;;;10.82;9.82;;;18.00;59.90;;;;;;5094235;28;20517;-63
2023/04/21 11:05:10;;;;;;;10.30;9.40;;;18.30;58.30;;;;;;5107781;27;20423;-63
2023/04/21 11:07:36;;;;;;;10.10;9.30;;;18.70;57.20;;;;;;5103545;27;20613;-62
2023/04/21 11:10:06;;;;;;;9.82;9.02;;;19.00;56.20;;;;;;5090255;28;20520;-62
2023/04/21 11:12:35;;;;;;;9.60;8.90;;;19.00;52.40;;;;;;5098664;28;20743;-63
2023/04/21 11:15:06;;;;;;;8.98;8.27;;;19.00;52.00;;;;;;5103942;27;20424;-64
2023/04/21 11:17:33;;;;;;;8.90;8.20;;;19.20;53.70;;;;;;5107048;27;20435;-63
2023/04/21 11:20:05;;;;;;;8.68;8.07;;;19.60;53.60;;;;;;5106902;27;20441;-63
2023/04/21 11:22:32;;;;;;;9.80;8.80;;;19.80;50.60;;;;;;5097758;28;20424;-63
2023/04/21 11:24:59;;;;;;;9.63;8.73;;;19.70;49.30;;;;;;5098839;28;21023;-64
2023/04/21 11:27:27;;;;;;;9.30;8.50;;;19.60;50.20;;;;;;5100815;28;20423;-61
2023/04/21 11:29:54;;;;;;;8.60;7.90;;;19.70;49.60;;;;;;5094292;28;20410;-61
2023/04/21 11:32:21;;;;;;;8.00;7.40;;;19.80;48.20;;;;;;5094987;28;20866;-63
2023/04/21 11:34:48;;;;;;;7.50;6.80;;;19.90;46.10;;;;;;5100030;28;20435;-64
2023/04/21 11:37:25;;;;;;;8.00;7.40;;;19.80;45.60;;;;;;5101524;28;20409;-63
2023/04/21 11:39:57;;;;;;;7.63;7.03;;;19.80;46.60;;;;;;5097863;27;20928;-63
2023/04/21 11:42:24;;;;;;;7.88;7.18;;;20.20;45.70;;;;;;5102227;27;21064;-62
2023/04/21 11:44:54;;;;;;;8.13;7.43;;;20.60;45.80;;;;;;5092753;28;20420;-62
2023/04/21 11:47:23;;;;;;;7.40;6.80;;;21.00;45.70;;;;;;5096324;28;20560;-62
2023/04/21 11:49:53;;;;;;;6.90;6.40;;;21.20;43.20;;;;;;5085035;28;20417;-68
2023/04/21 11:52:26;;;;;;;7.10;6.50;;;21.20;42.90;;;;;;5096244;28;20454;-61
2023/04/21 11:54:57;;;;;;;6.60;6.10;;;21.40;43.00;;;;;;5086496;28;20416;-60
2023/04/21 11:57:25;;;;;;;7.30;6.70;;;21.60;42.50;;;;;;5105391;28;20409;-62
2023/04/21 11:59:52;;;;;;;7.30;6.70;;;21.50;42.10;;;;;;5086553;28;20487;-62
2023/04/21 12:02:24;;;;;;;7.90;7.20;;;21.50;44.20;;;;;;5107601;22;20445;-68
2023/04/21 12:05:01;;;;;;;7.90;7.20;;;21.80;45.00;;;;;;5082715;28;20409;-68
2023/04/21 12:07:31;;;;;;;8.52;7.82;;;22.10;43.10;;;;;;5080465;28;20433;-69
2023/04/21 12:09:59;;;;;;;8.20;7.50;;;22.20;43.50;;;;;;5079021;28;20450;-69
2023/04/21 12:12:26;;;;;;;7.47;6.88;;;22.30;43.10;;;;;;5085436;28;20880;-69
2023/04/21 12:14:53;;;;;;;6.57;6.07;;;22.30;42.20;;;;;;5086139;28;20429;-70
2023/04/21 12:17:20;;;;;;;6.80;6.30;;;22.20;40.50;;;;;;5084661;28;20435;-71
2023/04/21 12:19:47;;;;;;;7.07;6.45;;;22.10;40.70;;;;;;5089306;28;20438;-67
2023/04/21 12:22:17;;;;;;;6.50;6.00;;;22.00;41.90;;;;;;5086693;28;20432;-68
2023/04/21 12:24:46;;;;;;;6.20;5.75;;;22.10;41.50;;;;;;5096292;28;21134;-68
2023/04/21 12:27:13;;;;;;;5.77;5.37;;;22.20;40.90;;;;;;5087570;28;21132;-70
2023/04/21 12:29:40;;;;;;;5.75;5.32;;;22.10;41.00;;;;;;5088958;28;20914;-67
2023/04/21 12:32:07;;;;;;;6.00;5.57;;;22.20;42.10;;;;;;5086146;28;20984;-67
2023/04/21 12:34:34;;;;;;;6.50;6.00;;;22.40;40.60;;;;;;5090610;28;20417;-69
2023/04/21 12:37:02;;;;;;;6.40;5.80;;;22.60;40.10;;;;;;5092202;28;20433;-69